Time;durP1;ratioP1;P1;durP2;ratioP2;P2;SDS_P1;SDS_P2;PMS_P1;PMS_P2;Temp;Humidity;BMP_temperature;BMP_pressure;BME280_temperature;BME280_humidity;BME280_pressure;Samples;Min_cycle;Max_cycle;Signal;HPM_P1;HPM_P2
2022/09/13 00:00:53;;;;;;;10.27;4.38;;;;;;;24.30;68.06;100461.50;2077619;28;20052;-77
2022/09/13 00:02:16;;;;;;;7.85;3.75;;;;;;;24.27;68.43;100467.03;2079994;28;20505;-77
2022/09/13 00:03:42;;;;;;;9.35;4.18;;;;;;;24.25;68.38;100467.13;2069673;28;20104;-77
2022/09/13 00:05:03;;;;;;;13.70;4.32;;;;;;;24.25;68.57;100468.94;2076257;28;20079;-77
2022/09/13 00:06:27;;;;;;;12.15;4.57;;;;;;;24.26;68.45;100465.28;2069268;28;20054;-77
2022/09/13 00:07:49;;;;;;;12.57;3.92;;;;;;;24.26;68.57;100468.88;2076791;28;20053;-77
2022/09/13 00:09:11;;;;;;;11.88;4.95;;;;;;;24.27;68.31;100467.03;2076228;28;20057;-77
2022/09/13 00:10:33;;;;;;;5.35;3.10;;;;;;;24.24;68.74;100462.66;2085195;28;20045;-77
2022/09/13 00:11:56;;;;;;;10.82;4.38;;;;;;;24.25;68.38;100466.22;2079104;28;20539;-77
2022/09/13 00:13:17;;;;;;;8.48;4.30;;;;;;;24.26;68.63;100465.28;2077402;28;20090;-76
2022/09/13 00:14:40;;;;;;;7.05;4.18;;;;;;;24.27;68.36;100467.03;2068959;28;20046;-77
2022/09/13 00:16:03;;;;;;;8.68;3.35;;;;;;;24.26;68.52;100466.16;2078715;28;20084;-77
2022/09/13 00:17:26;;;;;;;9.57;4.25;;;;;;;24.28;68.44;100471.50;2069495;28;20034;-77
2022/09/13 00:18:49;;;;;;;8.38;3.72;;;;;;;24.29;68.31;100463.31;2077073;28;20065;-77
2022/09/13 00:20:10;;;;;;;11.77;4.72;;;;;;;24.30;68.05;100465.06;2076527;28;20064;-77
2022/09/13 00:21:35;;;;;;;8.15;3.58;;;;;;;24.29;68.22;100462.44;2077330;28;20048;-77
2022/09/13 00:22:56;;;;;;;11.95;3.90;;;;;;;24.27;68.05;100472.44;2063695;28;20065;-77
2022/09/13 00:24:18;;;;;;;9.30;3.65;;;;;;;24.26;68.21;100463.47;2068351;28;20136;-77
2022/09/13 00:25:40;;;;;;;9.15;3.75;;;;;;;24.25;68.18;100461.72;2077039;28;20053;-77
2022/09/13 00:27:02;;;;;;;10.25;3.60;;;;;;;24.23;68.11;100463.59;2075765;28;20049;-77
2022/09/13 00:28:23;;;;;;;10.95;4.45;;;;;;;24.25;68.31;100468.94;2067835;28;20053;-77
2022/09/13 00:29:46;;;;;;;10.55;3.72;;;;;;;24.23;68.08;100460.91;2066303;28;20046;-77
2022/09/13 00:31:10;;;;;;;8.18;3.53;;;;;;;24.23;68.21;100455.50;2081805;28;20056;-77
2022/09/13 00:32:33;;;;;;;10.15;3.30;;;;;;;24.25;68.03;100460.84;2066391;28;20060;-77
2022/09/13 00:33:57;;;;;;;10.82;3.63;;;;;;;24.23;68.29;100464.47;2066771;28;20057;-77
2022/09/13 00:35:18;;;;;;;10.60;3.95;;;;;;;24.26;68.33;100460.78;2069007;28;20045;-77
2022/09/13 00:36:42;;;;;;;12.65;4.00;;;;;;;24.31;67.95;100457.84;2085115;28;20392;-77
2022/09/13 00:38:03;;;;;;;7.38;3.80;;;;;;;24.31;67.90;100445.25;2074173;28;20080;-77
2022/09/13 00:39:26;;;;;;;12.07;4.57;;;;;;;24.32;67.84;100448.81;2076586;28;20045;-78
2022/09/13 00:40:47;;;;;;;10.30;4.32;;;;;;;24.31;67.92;100447.94;2076054;28;20095;-77
2022/09/13 00:42:12;;;;;;;8.73;3.95;;;;;;;24.29;68.22;100443.56;2075719;28;20397;-77
2022/09/13 00:43:47;;;;;;;10.40;3.83;;;;;;;24.30;68.20;100445.31;2084490;28;20137;-76
2022/09/13 00:45:16;;;;;;;9.18;4.35;;;;;;;24.31;68.04;100441.66;2079493;28;20057;-76
2022/09/13 00:46:44;;;;;;;9.55;3.90;;;;;;;24.31;68.52;100442.53;2077292;28;20041;-76
2022/09/13 00:48:11;;;;;;;9.10;3.72;;;;;;;24.32;68.49;100447.00;2076661;28;20482;-76
2022/09/13 00:49:37;;;;;;;8.27;4.22;;;;;;;24.35;68.52;100446.84;2077469;28;20049;-77
2022/09/13 00:51:01;;;;;;;9.75;3.90;;;;;;;24.37;68.16;100450.34;2076889;28;20132;-76
2022/09/13 00:52:27;;;;;;;11.10;4.07;;;;;;;24.39;68.27;100437.69;2071216;28;20147;-76
2022/09/13 00:53:54;;;;;;;8.80;4.35;;;;;;;24.41;68.42;100438.50;2075076;28;20421;-76
2022/09/13 00:55:20;;;;;;;10.82;4.32;;;;;;;24.42;68.38;100434.81;2077882;28;20049;-75
2022/09/13 00:56:47;;;;;;;11.05;4.68;;;;;;;24.47;68.49;100437.31;2079404;28;20156;-76
2022/09/13 00:58:14;;;;;;;10.32;4.07;;;;;;;24.50;68.75;100437.16;2077239;28;20513;-77
2022/09/13 00:59:41;;;;;;;11.02;5.32;;;;;;;24.55;68.70;100438.69;2069682;28;20398;-79
2022/09/13 01:01:06;;;;;;;9.30;4.88;;;;;;;24.54;68.85;100439.66;2069905;28;20049;-79
2022/09/13 01:02:28;;;;;;;12.32;6.28;;;;;;;24.56;68.95;100432.34;2078426;28;20052;-79
2022/09/13 01:03:51;;;;;;;12.57;4.88;;;;;;;24.59;68.85;100432.22;2069409;28;20037;-78
2022/09/13 01:05:15;;;;;;;13.45;5.18;;;;;;;24.62;68.88;100432.06;2063165;28;20058;-79
2022/09/13 01:06:40;;;;;;;8.32;4.47;;;;;;;24.65;68.79;100430.16;2070740;28;20045;-79
2022/09/13 01:08:21;;;;;;;12.50;4.35;;;;;;;24.67;68.91;100437.25;2086421;28;20065;-78
2022/09/13 01:09:48;;;;;;;10.40;4.68;;;;;;;24.67;68.99;100428.28;2073025;28;20068;-79
2022/09/13 01:11:17;;;;;;;10.00;3.95;;;;;;;24.66;68.80;100432.81;2084387;28;20045;-79
2022/09/13 01:12:47;;;;;;;11.32;5.30;;;;;;;24.66;68.91;100426.53;2081138;28;20042;-79
2022/09/13 01:14:10;;;;;;;12.27;4.85;;;;;;;24.63;69.14;100433.81;2071759;28;20064;-78
2022/09/13 01:15:31;;;;;;;9.35;4.75;;;;;;;24.63;69.18;100432.94;2071860;28;20057;-78
2022/09/13 01:16:53;;;;;;;14.88;5.25;;;;;;;24.63;68.94;100427.53;2069874;28;20565;-77
2022/09/13 01:18:16;;;;;;;8.80;3.92;;;;;;;24.61;69.13;100426.75;2070435;28;20139;-78
2022/09/13 01:19:38;;;;;;;9.65;4.68;;;;;;;24.57;69.33;100425.13;2070602;28;20046;-78
2022/09/13 01:21:33;;;;;;;9.50;4.95;;;;;;;24.53;69.25;100426.25;2078039;28;20064;-77
2022/09/13 01:23:25;;;;;;;12.02;4.25;;;;;;;24.49;69.11;100430.88;2064573;28;20795;-78
2022/09/13 01:25:24;;;;;;;9.05;4.38;;;;;;;24.44;69.04;100427.53;2073958;28;20077;-77
2022/09/13 01:27:22;;;;;;;10.00;3.60;;;;;;;24.42;68.52;100432.13;2072721;28;20054;-78
2022/09/13 01:29:07;;;;;;;12.15;4.15;;;;;;;24.43;68.62;100431.19;2075287;28;20054;-78
2022/09/13 01:30:37;;;;;;;10.00;4.93;;;;;;;24.43;68.57;100431.19;2081168;28;20041;-77
2022/09/13 01:32:08;;;;;;;12.68;5.47;;;;;;;24.41;68.25;100422.31;2084504;28;20053;-77
2022/09/13 01:33:47;;;;;;;8.00;3.85;;;;;;;24.42;68.44;100420.44;2079482;28;20045;-76
2022/09/13 01:35:22;;;;;;;8.15;3.35;;;;;;;24.43;68.26;100431.19;2079888;28;20045;-77
2022/09/13 01:37:01;;;;;;;9.27;4.13;;;;;;;24.44;68.13;100430.22;2070866;28;20137;-77
2022/09/13 01:38:40;;;;;;;8.00;3.95;;;;;;;24.44;67.75;100427.53;2079582;28;20083;-77
2022/09/13 01:40:16;;;;;;;10.88;4.00;;;;;;;24.44;67.95;100432.94;2079177;28;20136;-77
2022/09/13 01:42:01;;;;;;;7.38;3.22;;;;;;;24.43;68.00;100427.59;2070444;28;20058;-77
2022/09/13 01:43:34;;;;;;;10.30;3.13;;;;;;;24.41;67.82;100426.81;2079745;28;20049;-77
2022/09/13 01:45:07;;;;;;;10.68;4.22;;;;;;;24.42;67.89;100431.25;2079671;28;20045;-77
2022/09/13 01:46:36;;;;;;;9.32;4.93;;;;;;;24.41;67.77;100426.81;2079353;28;20417;-77
2022/09/13 01:48:03;;;;;;;10.93;3.65;;;;;;;24.41;67.46;100429.50;2077358;28;20081;-77
2022/09/13 01:49:30;;;;;;;8.82;4.32;;;;;;;24.38;67.28;100433.22;2077529;28;20069;-77
2022/09/13 01:51:01;;;;;;;7.70;3.40;;;;;;;24.37;67.47;100423.38;2079707;28;20042;-79
2022/09/13 01:52:27;;;;;;;8.50;3.80;;;;;;;24.36;67.20;100432.41;2078230;28;20056;-78
2022/09/13 01:53:57;;;;;;;9.45;3.85;;;;;;;24.35;66.70;100424.41;2078889;28;20073;-78
2022/09/13 01:55:27;;;;;;;6.38;3.20;;;;;;;24.34;66.64;100430.75;2086077;28;20041;-78
2022/09/13 01:56:58;;;;;;;6.13;3.38;;;;;;;24.34;66.19;100423.53;2080167;28;20045;-78
2022/09/13 01:58:28;;;;;;;9.50;3.20;;;;;;;24.34;66.35;100431.63;2086755;28;20045;-78
2022/09/13 01:59:54;;;;;;;8.57;2.92;;;;;;;24.37;66.03;100428.75;2065081;28;20085;-78
2022/09/13 02:01:18;;;;;;;8.93;3.30;;;;;;;24.39;66.16;100429.59;2078907;28;20045;-78
2022/09/13 02:02:47;;;;;;;7.53;3.30;;;;;;;24.40;66.08;100431.34;2077962;28;20041;-78
2022/09/13 02:04:15;;;;;;;9.70;4.45;;;;;;;24.41;66.05;100426.81;2080267;28;20654;-78
2022/09/13 02:05:43;;;;;;;12.48;4.32;;;;;;;24.40;66.02;100430.47;2079374;28;20061;-78
2022/09/13 02:07:08;;;;;;;6.85;3.67;;;;;;;24.40;65.82;100435.84;2077079;28;20646;-78
2022/09/13 02:08:38;;;;;;;10.40;3.63;;;;;;;24.41;65.74;100432.22;2078415;28;20553;-79
2022/09/13 02:10:05;;;;;;;8.20;3.30;;;;;;;24.42;65.71;100429.41;2080362;28;20053;-77
2022/09/13 02:11:28;;;;;;;7.28;3.08;;;;;;;24.44;65.71;100432.94;2077783;28;20526;-77
2022/09/13 02:12:52;;;;;;;8.32;3.38;;;;;;;24.49;65.47;100428.19;2072208;28;20045;-77
2022/09/13 02:14:18;;;;;;;8.05;3.85;;;;;;;24.53;65.40;100432.50;2070276;28;20104;-77
2022/09/13 02:15:43;;;;;;;10.35;3.05;;;;;;;24.58;65.27;100429.59;2064086;28;20439;-78
2022/09/13 02:17:11;;;;;;;9.70;2.75;;;;;;;24.60;65.40;100425.88;2067237;28;20050;-78
2022/09/13 02:18:39;;;;;;;7.53;4.75;;;;;;;24.62;65.31;100426.66;2082548;28;20562;-77
2022/09/13 02:20:05;;;;;;;6.88;2.88;;;;;;;24.62;65.01;100418.56;2080785;28;20629;-77
2022/09/13 02:21:32;;;;;;;11.25;3.38;;;;;;;24.62;65.38;100434.75;2067936;28;20140;-77
2022/09/13 02:22:59;;;;;;;6.53;2.72;;;;;;;24.62;65.09;100432.06;2074610;28;20057;-77
2022/09/13 02:24:24;;;;;;;8.25;3.13;;;;;;;24.64;65.34;100429.28;2075378;28;20064;-78
2022/09/13 02:25:49;;;;;;;5.30;2.60;;;;;;;24.63;65.04;100427.53;2067251;28;20492;-77
2022/09/13 02:27:14;;;;;;;9.55;4.40;;;;;;;24.62;65.19;100426.66;2074067;28;20045;-76
2022/09/13 02:28:41;;;;;;;6.35;2.65;;;;;;;24.61;64.92;100422.19;2078314;28;20508;-76
2022/09/13 02:30:06;;;;;;;8.35;2.65;;;;;;;24.60;64.78;100416.91;2071495;28;20083;-77
2022/09/13 02:31:34;;;;;;;5.40;2.70;;;;;;;24.60;64.68;100425.00;2081938;28;20049;-76
2022/09/13 02:33:02;;;;;;;6.47;2.70;;;;;;;24.57;64.98;100417.03;2071622;28;20050;-76
2022/09/13 02:34:30;;;;;;;5.60;2.60;;;;;;;24.56;64.79;100421.56;2078364;28;20123;-76
2022/09/13 02:35:57;;;;;;;11.68;2.65;;;;;;;24.56;64.89;100416.16;2072844;28;20157;-76
2022/09/13 02:37:19;;;;;;;7.35;2.53;;;;;;;24.56;64.94;100423.38;2077199;28;20541;-76
2022/09/13 02:38:44;;;;;;;;;;;;;;;24.56;64.78;100426.06;2085893;28;20168;-76
2022/09/13 02:40:14;;;;;;;5.75;3.10;;;;;;;24.55;64.57;100433.28;2072130;28;19922;-76
2022/09/13 02:41:43;;;;;;;7.93;2.90;;;;;;;24.58;64.63;100427.75;2075728;28;20053;-77
2022/09/13 02:43:08;;;;;;;6.65;2.90;;;;;;;24.59;64.30;100420.53;2076174;28;20087;-76
2022/09/13 02:44:36;;;;;;;5.30;2.90;;;;;;;24.56;64.14;100426.94;2069924;28;20058;-76
2022/09/13 02:46:10;;;;;;;7.68;2.80;;;;;;;24.54;64.54;100431.56;2082096;28;20122;-76
2022/09/13 02:47:44;;;;;;;5.68;2.67;;;;;;;24.51;64.68;100433.53;2080916;28;20135;-76
2022/09/13 02:49:16;;;;;;;11.73;3.58;;;;;;;24.47;64.77;100431.94;2068980;28;20050;-76
2022/09/13 02:50:49;;;;;;;6.18;2.85;;;;;;;24.43;64.58;100427.59;2076610;28;20081;-77
2022/09/13 02:52:19;;;;;;;6.70;3.00;;;;;;;24.43;64.62;100433.00;2079359;28;20405;-77
2022/09/13 02:53:45;;;;;;;7.50;3.20;;;;;;;24.42;64.62;100433.94;2070935;28;20068;-77
2022/09/13 02:55:18;;;;;;;7.68;2.85;;;;;;;24.40;64.83;100434.03;2074511;28;20076;-77
2022/09/13 02:56:48;;;;;;;6.30;2.47;;;;;;;24.41;64.76;100437.63;2071174;28;20150;-77
2022/09/13 02:58:16;;;;;;;7.38;2.70;;;;;;;24.42;64.83;100437.50;2068235;28;20061;-77
2022/09/13 02:59:37;;;;;;;10.73;2.50;;;;;;;24.42;64.90;100440.22;2076086;28;20046;-77
2022/09/13 03:01:00;;;;;;;8.57;3.35;;;;;;;24.42;64.91;100434.81;2075590;28;20072;-77
2022/09/13 03:02:28;;;;;;;7.15;2.97;;;;;;;24.45;64.81;100445.47;2071772;28;20054;-77
2022/09/13 03:03:51;;;;;;;8.15;2.65;;;;;;;24.44;65.01;100432.06;2069411;28;20045;-77
2022/09/13 03:05:14;;;;;;;6.45;2.10;;;;;;;24.41;64.99;100437.63;2075321;28;20046;-77
2022/09/13 03:06:40;;;;;;;8.02;2.75;;;;;;;24.41;64.71;100437.63;2067018;28;20111;-78
2022/09/13 03:08:04;;;;;;;7.85;2.85;;;;;;;24.40;64.92;100433.16;2067571;28;20058;-77
2022/09/13 03:09:26;;;;;;;7.82;2.75;;;;;;;24.38;64.79;100440.44;2072191;28;20103;-77
2022/09/13 03:10:57;;;;;;;7.38;2.65;;;;;;;24.39;64.88;100434.97;2085126;28;20546;-78
2022/09/13 03:13:00;;;;;;;7.00;2.80;;;;;;;24.39;64.72;100437.69;2077674;28;20421;-77
2022/09/13 03:14:35;;;;;;;6.07;2.25;;;;;;;24.36;64.86;100445.91;2081453;28;20042;-77
2022/09/13 03:16:10;;;;;;;8.23;2.50;;;;;;;24.36;64.87;100448.59;2077367;28;20673;-77
2022/09/13 03:17:47;;;;;;;8.18;2.53;;;;;;;24.37;64.65;100453.06;2079691;28;20520;-77
2022/09/13 03:19:31;;;;;;;8.55;3.45;;;;;;;24.37;64.85;100447.66;2078469;28;20037;-76
2022/09/13 03:21:07;;;;;;;6.50;2.80;;;;;;;24.35;64.66;100446.84;2069167;28;20058;-78
2022/09/13 03:22:53;;;;;;;13.18;2.90;;;;;;;24.32;64.95;100444.31;2076110;28;20140;-78
2022/09/13 03:24:23;;;;;;;6.93;2.42;;;;;;;24.30;64.82;100448.88;2063762;28;20046;-77
2022/09/13 03:26:00;;;;;;;9.05;2.92;;;;;;;24.31;64.79;100444.38;2065613;28;20057;-78
2022/09/13 03:27:36;;;;;;;6.25;2.22;;;;;;;24.29;64.77;100448.94;2077985;28;20065;-78
2022/09/13 03:29:12;;;;;;;10.63;2.55;;;;;;;24.28;64.66;100452.63;2069351;28;20477;-78
2022/09/13 03:30:39;;;;;;;7.85;2.55;;;;;;;24.27;64.71;100457.13;2078919;28;20104;-78
2022/09/13 03:32:13;;;;;;;7.07;2.45;;;;;;;24.28;64.45;100455.31;2063661;28;20046;-77
2022/09/13 03:33:43;;;;;;;12.55;2.50;;;;;;;24.26;64.46;100455.38;2070169;28;20046;-78
2022/09/13 03:35:17;;;;;;;6.32;2.60;;;;;;;24.25;64.60;100460.84;2078233;28;20363;-78
2022/09/13 03:36:45;;;;;;;5.85;3.83;;;;;;;24.20;64.46;100459.22;2074894;28;20060;-77
2022/09/13 03:38:13;;;;;;;8.45;2.40;;;;;;;24.17;64.68;100456.63;2077379;28;20034;-78
2022/09/13 03:39:41;;;;;;;8.10;3.53;;;;;;;24.12;64.50;100455.09;2080054;28;20052;-78
2022/09/13 03:41:09;;;;;;;4.80;2.13;;;;;;;24.14;64.47;100461.31;2062024;28;20054;-78
2022/09/13 03:42:36;;;;;;;8.73;2.38;;;;;;;24.16;64.42;100459.38;2072278;28;20042;-77
2022/09/13 03:44:03;;;;;;;5.45;2.05;;;;;;;24.17;64.24;100461.16;2077098;28;20099;-77
2022/09/13 03:45:30;;;;;;;6.18;2.00;;;;;;;24.13;64.29;100455.03;2076117;28;20049;-77
2022/09/13 03:46:56;;;;;;;5.57;2.08;;;;;;;24.12;64.58;100466.75;2068425;28;20054;-77
2022/09/13 03:48:19;;;;;;;7.10;2.47;;;;;;;24.08;64.50;100461.59;2084117;28;20049;-78
2022/09/13 03:49:41;;;;;;;4.68;2.10;;;;;;;24.07;64.39;100466.09;2071663;28;20045;-77
2022/09/13 03:51:04;;;;;;;6.35;1.75;;;;;;;24.08;64.35;100461.59;2073582;28;20045;-77
2022/09/13 03:52:26;;;;;;;4.57;1.88;;;;;;;24.08;64.36;100462.47;2068964;28;20038;-78
2022/09/13 03:53:56;;;;;;;8.63;2.20;;;;;;;24.10;64.48;100462.38;2058474;28;20137;-78
2022/09/13 03:55:20;;;;;;;6.15;2.28;;;;;;;24.10;64.46;100470.47;2060285;28;20039;-77
2022/09/13 03:56:42;;;;;;;7.80;1.92;;;;;;;24.10;64.07;100463.25;2074552;28;20057;-78
2022/09/13 03:58:04;;;;;;;7.85;2.00;;;;;;;24.12;64.36;100473.97;2078323;28;20148;-77
2022/09/13 03:59:26;;;;;;;3.42;1.85;;;;;;;24.13;64.22;100478.44;2079710;28;20104;-78
2022/09/13 04:00:49;;;;;;;6.85;2.35;;;;;;;24.11;64.12;100472.22;2078259;28;20095;-77
2022/09/13 04:02:10;;;;;;;3.83;2.50;;;;;;;24.12;64.03;100476.66;2071969;28;20077;-78
2022/09/13 04:03:33;;;;;;;10.57;3.42;;;;;;;24.11;63.96;100477.59;2068666;28;20046;-75
2022/09/13 04:04:55;;;;;;;8.23;2.40;;;;;;;24.10;64.27;100478.56;2074909;28;20045;-77
2022/09/13 04:06:17;;;;;;;4.72;2.05;;;;;;;24.14;64.00;100480.19;2070813;28;20115;-77
2022/09/13 04:07:39;;;;;;;7.65;2.50;;;;;;;24.14;64.03;100477.50;2077952;28;20699;-77
2022/09/13 04:09:03;;;;;;;5.30;1.85;;;;;;;24.15;63.89;100476.53;2078619;28;20050;-78
2022/09/13 04:10:26;;;;;;;4.45;1.98;;;;;;;24.12;64.12;100485.63;2076990;28;20053;-78
2022/09/13 04:11:48;;;;;;;4.22;2.35;;;;;;;24.09;63.92;100483.06;2076331;28;20111;-78
2022/09/13 04:13:10;;;;;;;5.82;2.28;;;;;;;24.08;63.80;100486.75;2076890;28;20041;-78
2022/09/13 04:14:32;;;;;;;5.07;1.80;;;;;;;24.08;63.86;100486.75;2077242;28;20667;-78
2022/09/13 04:15:54;;;;;;;3.97;1.70;;;;;;;24.07;63.77;100487.69;2075828;28;20088;-77
2022/09/13 04:17:16;;;;;;;7.20;2.42;;;;;;;24.09;63.71;100493.00;2075887;28;20401;-78
2022/09/13 04:18:38;;;;;;;7.93;2.28;;;;;;;24.13;64.02;100490.09;2076398;28;20603;-77
2022/09/13 04:20:01;;;;;;;7.53;2.30;;;;;;;24.21;63.82;100496.06;2069303;28;20140;-78
2022/09/13 04:21:23;;;;;;;7.65;2.38;;;;;;;24.31;63.70;100495.63;2065500;28;20042;-77
2022/09/13 04:22:51;;;;;;;4.15;1.45;;;;;;;24.41;63.39;100494.28;2072959;28;20049;-78
2022/09/13 04:24:15;;;;;;;11.90;2.60;;;;;;;24.49;63.05;100501.06;2077936;28;20052;-78
2022/09/13 04:25:39;;;;;;;6.88;1.88;;;;;;;24.55;62.95;100498.06;2080089;28;20852;-77
2022/09/13 04:27:02;;;;;;;6.45;2.30;;;;;;;24.59;62.82;100501.53;2078602;28;20046;-78
2022/09/13 04:28:24;;;;;;;7.25;1.85;;;;;;;24.60;62.34;100501.47;2077533;28;20038;-78
2022/09/13 04:29:46;;;;;;;6.68;1.90;;;;;;;24.63;62.49;100503.13;2077818;28;20461;-78
2022/09/13 04:31:07;;;;;;;7.13;2.00;;;;;;;24.65;62.14;100494.97;2077681;28;20665;-78
2022/09/13 04:32:32;;;;;;;7.03;2.15;;;;;;;24.65;62.32;100500.38;2087165;28;20041;-78
2022/09/13 04:33:53;;;;;;;7.10;1.90;;;;;;;24.65;61.99;100500.38;2089649;28;20045;-78
2022/09/13 04:35:16;;;;;;;4.35;1.90;;;;;;;24.69;61.96;100505.53;2078425;28;20045;-77
2022/09/13 04:36:38;;;;;;;5.25;2.40;;;;;;;24.72;61.76;100507.22;2069427;28;20990;-78
2022/09/13 04:38:00;;;;;;;5.63;1.80;;;;;;;24.69;61.69;100508.25;2075266;28;20421;-78
2022/09/13 04:39:24;;;;;;;3.65;2.22;;;;;;;24.71;61.73;100513.56;2077637;28;20157;-77
2022/09/13 04:40:53;;;;;;;5.90;2.10;;;;;;;24.72;61.49;100508.13;2069141;28;20058;-77
2022/09/13 04:42:14;;;;;;;4.10;1.77;;;;;;;24.78;61.14;100512.34;2069837;28;20136;-77
2022/09/13 04:43:36;;;;;;;3.90;1.83;;;;;;;24.81;61.18;100507.66;2071098;28;20124;-77
2022/09/13 04:44:59;;;;;;;5.07;1.98;;;;;;;24.83;60.98;100510.28;2074350;28;20609;-78
2022/09/13 04:46:20;;;;;;;3.35;1.92;;;;;;;24.89;61.02;100510.91;2081235;28;20057;-78
2022/09/13 04:47:43;;;;;;;5.07;2.35;;;;;;;25.03;61.01;100515.66;2079747;28;20452;-78
2022/09/13 04:49:04;;;;;;;7.95;2.55;;;;;;;25.17;60.58;100505.06;2083960;28;20450;-78
2022/09/13 04:50:26;;;;;;;8.13;3.05;;;;;;;25.32;60.28;100507.03;2080571;28;20096;-78
2022/09/13 04:51:48;;;;;;;5.35;2.10;;;;;;;25.48;60.18;100511.66;2077716;28;20081;-78
2022/09/13 04:53:11;;;;;;;5.68;1.73;;;;;;;25.62;59.69;100511.88;2069978;28;20042;-78
2022/09/13 04:54:35;;;;;;;5.38;1.50;;;;;;;25.73;59.56;100501.41;2064908;28;20104;-78
2022/09/13 04:55:59;;;;;;;7.15;2.00;;;;;;;25.84;59.12;100501.72;2084283;28;20069;-78
2022/09/13 04:57:22;;;;;;;5.38;1.83;;;;;;;25.89;59.08;100501.47;2080671;28;20053;-77
2022/09/13 04:58:44;;;;;;;6.75;2.22;;;;;;;25.85;58.68;100500.78;2077302;28;20536;-78
2022/09/13 05:00:09;;;;;;;9.27;2.00;;;;;;;25.86;58.81;100510.66;2078088;28;20049;-77
2022/09/13 05:01:31;;;;;;;5.18;1.60;;;;;;;25.87;58.72;100500.69;2080355;28;20128;-78
2022/09/13 05:02:56;;;;;;;4.55;1.77;;;;;;;25.95;58.57;100515.56;2077617;28;20493;-78
2022/09/13 05:04:19;;;;;;;6.35;2.80;;;;;;;26.04;58.36;100511.50;2078518;28;20541;-77
2022/09/13 05:05:40;;;;;;;4.25;1.67;;;;;;;26.09;58.03;100504.91;2078386;28;20510;-78
2022/09/13 05:07:02;;;;;;;3.47;1.70;;;;;;;26.21;58.00;100511.50;2070226;28;20612;-77
2022/09/13 05:08:24;;;;;;;4.28;1.50;;;;;;;26.33;57.72;100521.69;2075635;28;20106;-78
2022/09/13 05:09:47;;;;;;;4.10;1.52;;;;;;;26.44;57.58;100515.72;2078226;28;20119;-78
2022/09/13 05:11:10;;;;;;;4.72;1.83;;;;;;;26.48;57.33;100525.41;2070440;28;20069;-78
2022/09/13 05:12:34;;;;;;;1.63;1.30;;;;;;;26.51;57.17;100525.28;2072188;28;20041;-78
2022/09/13 05:13:58;;;;;;;6.57;2.00;;;;;;;26.50;57.12;100518.97;2076994;28;20046;-79
2022/09/13 05:15:19;;;;;;;5.53;2.03;;;;;;;26.46;56.79;100522.78;2079723;28;20467;-78
2022/09/13 05:16:42;;;;;;;6.05;2.17;;;;;;;26.49;56.79;100524.47;2087527;28;20562;-79
2022/09/13 05:18:04;;;;;;;4.90;1.55;;;;;;;26.56;56.88;100526.75;2081132;28;20102;-77
2022/09/13 05:19:26;;;;;;;5.57;1.73;;;;;;;26.70;56.86;100522.44;2075686;28;20490;-78
2022/09/13 05:20:47;;;;;;;3.53;1.60;;;;;;;26.86;56.99;100520.59;2069887;28;20053;-79
2022/09/13 05:22:10;;;;;;;4.40;1.50;;;;;;;27.00;56.49;100520.75;2094487;28;20052;-78
2022/09/13 05:23:31;;;;;;;9.18;1.90;;;;;;;27.03;56.22;100523.31;2089161;28;20102;-78
2022/09/13 05:24:56;;;;;;;7.22;2.00;;;;;;;27.02;56.00;100526.09;2077866;28;20469;-78
2022/09/13 05:26:19;;;;;;;3.80;1.90;;;;;;;26.92;55.73;100531.13;2070804;28;20129;-78
2022/09/13 05:27:41;;;;;;;5.68;1.92;;;;;;;26.85;55.82;100524.28;2079180;28;20052;-78
2022/09/13 05:29:03;;;;;;;5.05;1.98;;;;;;;26.93;56.06;100535.59;2083691;28;20052;-78
2022/09/13 05:30:26;;;;;;;5.03;1.45;;;;;;;27.07;55.39;100529.41;2077774;28;20049;-78
2022/09/13 05:31:47;;;;;;;2.95;1.60;;;;;;;27.20;55.28;100539.47;2078223;28;20049;-78
2022/09/13 05:33:09;;;;;;;6.22;1.90;;;;;;;27.32;55.15;100527.94;2080696;28;20088;-78
2022/09/13 05:34:32;;;;;;;4.78;1.60;;;;;;;27.48;54.72;100535.19;2078327;28;20038;-78
2022/09/13 05:35:53;;;;;;;5.47;2.38;;;;;;;27.58;54.41;100531.00;2084428;28;20508;-78
2022/09/13 05:37:16;;;;;;;3.55;1.75;;;;;;;27.73;54.07;100536.41;2071129;28;20053;-79
2022/09/13 05:38:38;;;;;;;6.40;2.13;;;;;;;27.84;53.50;100541.19;2071916;28;20141;-78
2022/09/13 05:40:03;;;;;;;4.43;1.80;;;;;;;27.74;53.36;100538.16;2074732;28;20033;-78
2022/09/13 05:41:24;;;;;;;5.82;1.80;;;;;;;27.74;53.34;100545.41;2080337;28;20040;-78
2022/09/13 05:42:47;;;;;;;4.80;2.30;;;;;;;27.62;53.42;100547.03;2072154;28;20124;-78
2022/09/13 05:44:09;;;;;;;5.43;1.70;;;;;;;27.46;53.48;100551.53;2067384;28;20057;-78
2022/09/13 05:45:31;;;;;;;5.88;2.17;;;;;;;27.29;53.52;100546.22;2070275;28;20057;-78
2022/09/13 05:46:53;;;;;;;;;;;;;;;27.12;53.66;100554.41;2072961;28;20049;-79
2022/09/13 05:48:14;;;;;;;5.82;2.20;;;;;;;26.95;53.92;100547.25;2077844;28;20385;-78
2022/09/13 05:49:37;;;;;;;6.00;2.20;;;;;;;26.83;54.19;100543.34;2081047;28;20132;-78
2022/09/13 05:51:06;;;;;;;7.25;2.35;;;;;;;26.77;54.37;100564.47;2078739;28;20041;-77
2022/09/13 05:52:28;;;;;;;8.38;2.30;;;;;;;26.73;54.42;100558.34;2082560;28;20073;-78
2022/09/13 05:53:53;;;;;;;5.72;2.22;;;;;;;26.70;54.23;100558.53;2076644;28;20045;-77
2022/09/13 05:55:16;;;;;;;4.28;2.08;;;;;;;26.63;54.41;100554.41;2071369;28;20045;-79
2022/09/13 05:56:38;;;;;;;5.22;2.00;;;;;;;26.52;54.46;100557.66;2067146;28;20108;-78
2022/09/13 05:58:02;;;;;;;5.70;2.08;;;;;;;26.42;54.91;100564.53;2071654;28;20434;-77
2022/09/13 05:59:24;;;;;;;7.93;2.20;;;;;;;26.36;54.94;100559.44;2074555;28;20042;-78
2022/09/13 06:00:52;;;;;;;6.47;2.20;;;;;;;26.37;55.08;100554.91;2075553;28;20046;-78
2022/09/13 06:02:14;;;;;;;4.78;1.85;;;;;;;26.31;55.10;100556.13;2070516;28;20443;-79
2022/09/13 06:03:35;;;;;;;4.95;2.10;;;;;;;26.49;55.40;100560.56;2074914;28;20065;-78
2022/09/13 06:04:58;;;;;;;5.63;2.08;;;;;;;26.77;55.31;100559.06;2069737;28;20042;-78
2022/09/13 06:06:21;;;;;;;6.05;2.38;;;;;;;26.84;54.90;100572.19;2074748;28;20421;-79
2022/09/13 06:07:42;;;;;;;5.97;2.30;;;;;;;26.87;55.27;100576.56;2078078;28;20080;-77
2022/09/13 06:09:07;;;;;;;6.53;2.58;;;;;;;27.13;55.13;100575.16;2079743;28;20056;-78
2022/09/13 06:10:31;;;;;;;5.75;1.77;;;;;;;27.52;54.86;100578.34;2078420;28;20061;-77
2022/09/13 06:11:53;;;;;;;7.07;1.85;;;;;;;27.85;54.42;100577.34;2069881;28;20074;-78
2022/09/13 06:13:16;;;;;;;5.88;1.80;;;;;;;28.17;53.82;100578.16;2074312;28;20537;-77
2022/09/13 06:14:38;;;;;;;4.63;1.95;;;;;;;28.44;53.07;100580.09;2080105;28;20041;-80
2022/09/13 06:16:02;;;;;;;7.05;2.20;;;;;;;28.68;52.73;100580.44;2067931;28;20575;-78
2022/09/13 06:17:24;;;;;;;4.35;1.70;;;;;;;28.93;52.30;100586.09;2078923;28;20036;-77
2022/09/13 06:18:47;;;;;;;6.32;1.50;;;;;;;29.05;51.60;100587.16;2078103;28;20045;-80
2022/09/13 06:20:10;;;;;;;5.85;2.45;;;;;;;28.97;51.39;100589.50;2072276;28;20088;-78
2022/09/13 06:21:32;;;;;;;4.63;1.85;;;;;;;29.07;51.32;100589.78;2069836;28;20042;-77
2022/09/13 06:22:54;;;;;;;5.75;2.05;;;;;;;29.28;50.74;100582.94;2084248;28;20468;-76
2022/09/13 06:24:16;;;;;;;3.72;1.88;;;;;;;29.48;50.40;100588.00;2079164;28;21788;-76
2022/09/13 06:25:40;;;;;;;4.88;1.55;;;;;;;29.77;49.78;100580.63;2085684;28;20751;-74
2022/09/13 06:27:03;;;;;;;6.65;2.33;;;;;;;29.96;49.13;100585.75;2070826;28;20050;-74
2022/09/13 06:28:25;;;;;;;2.75;1.50;;;;;;;30.08;48.91;100591.22;2070066;28;20042;-74
2022/09/13 06:29:48;;;;;;;4.18;1.73;;;;;;;30.20;48.31;100596.81;2083320;28;20041;-73
2022/09/13 06:31:12;;;;;;;4.72;1.83;;;;;;;30.40;48.08;100588.13;2068189;28;20058;-73
2022/09/13 06:32:35;;;;;;;4.82;1.80;;;;;;;30.62;47.74;100584.81;2075646;28;20069;-72
2022/09/13 06:33:58;;;;;;;6.10;2.30;;;;;;;30.75;47.37;100591.16;2069152;28;20079;-73
2022/09/13 06:35:21;;;;;;;4.72;1.77;;;;;;;30.84;47.01;100590.50;2078932;28;20053;-73
2022/09/13 06:36:43;;;;;;;6.03;1.98;;;;;;;30.87;47.03;100590.25;2078541;28;20159;-73
2022/09/13 06:38:05;;;;;;;5.85;2.45;;;;;;;31.03;46.55;100593.66;2075709;28;20075;-73
2022/09/13 06:39:28;;;;;;;5.43;1.60;;;;;;;31.26;46.25;100592.00;2064235;28;20050;-73